KVCB

Details ICAO KVCB
Name NUT TREE
Region United States
Timezone America/Los_Angeles (UTC-7.0)
Plans Departing 29
Arriving 13
Stats Elevation 117 ft / 36 m (AMSL)
Location 38.377778° -121.961577°
Runways 1
Magnetic Variation 13.521° E
Sunrise 2018-05-25 12:50:41 UTC / 2018-05-25 05:50:41 Local
Sunset 2018-05-26 03:21:50 UTC / 2018-05-25 20:21:50 Local
Advertisement - Login to hide

Runways

ID Width Length Bearing (true) Bearing (mag) Surface Threshold Offset Overrun Length
02 75 ft / 23 m 4,700 ft / 1,433 m 33.55° 20.03° Asphalt 0 ft / 0 m 350 ft / 107 m
20 75 ft / 23 m 4,700 ft / 1,433 m 213.56° 200.04° Asphalt 0 ft / 0 m 0 ft / 0 m

Map

Weather


0- 5 10 15 20 25 30 35+ Temperature / ° C

Clouds and Precipitation
Forecast for 2018-05-26 00:00 UTC. Updated 3 hours ago

Ground ~20,000 ft ~40,000 ft Winds

METAR

KVCB 260153Z AUTO 24008KT 10SM OVC065 18/12 A3008 RMK AO2 SLP185 T01780117

TAF

Not found

Frequencies

Recorded 134.75 MHz ASOS
Approach 128.40 MHz TRAVIS APP/DEP
Unicom 122.70 MHz CTAF/UNICOM
Warning: Do not use this data for real-world aviation or navigation. No guarantee of current accuracy is given.